sensor_id;sensor_type;location;lat;lon;timestamp;P1;durP1;ratioP1;P2;durP2;ratioP2
79403;SDS011;68858;48.642;9.142;2023-04-02T00:01:39;1.53;;;0.80;;
79403;SDS011;68858;48.642;9.142;2023-04-02T00:04:12;2.30;;;1.23;;
79403;SDS011;68858;48.642;9.142;2023-04-02T00:06:40;1.47;;;1.03;;
79403;SDS011;68858;48.642;9.142;2023-04-02T00:11:38;1.10;;;1.00;;
79403;SDS011;68858;48.642;9.142;2023-04-02T00:14:12;0.90;;;0.80;;
79403;SDS011;68858;48.642;9.142;2023-04-02T00:16:40;1.17;;;0.83;;
79403;SDS011;68858;48.642;9.142;2023-04-02T00:19:14;1.90;;;1.07;;
79403;SDS011;68858;48.642;9.142;2023-04-02T00:21:41;1.10;;;1.00;;
79403;SDS011;68858;48.642;9.142;2023-04-02T00:24:12;0.80;;;0.70;;
79403;SDS011;68858;48.642;9.142;2023-04-02T00:26:41;1.10;;;0.77;;
79403;SDS011;68858;48.642;9.142;2023-04-02T00:29:11;1.80;;;1.00;;
79403;SDS011;68858;48.642;9.142;2023-04-02T00:31:40;1.20;;;0.90;;
79403;SDS011;68858;48.642;9.142;2023-04-02T00:34:07;0.90;;;0.80;;
79403;SDS011;68858;48.642;9.142;2023-04-02T00:36:35;0.80;;;0.80;;
79403;SDS011;68858;48.642;9.142;2023-04-02T00:39:02;2.60;;;0.87;;
79403;SDS011;68858;48.642;9.142;2023-04-02T00:41:29;0.97;;;0.70;;
79403;SDS011;68858;48.642;9.142;2023-04-02T00:44:00;0.97;;;0.80;;
79403;SDS011;68858;48.642;9.142;2023-04-02T00:46:30;0.67;;;0.67;;
79403;SDS011;68858;48.642;9.142;2023-04-02T00:49:05;0.80;;;0.80;;
79403;SDS011;68858;48.642;9.142;2023-04-02T00:51:34;2.67;;;0.70;;
79403;SDS011;68858;48.642;9.142;2023-04-02T00:54:02;0.70;;;0.70;;
79403;SDS011;68858;48.642;9.142;2023-04-02T00:56:36;1.23;;;0.57;;
79403;SDS011;68858;48.642;9.142;2023-04-02T00:59:03;1.03;;;0.70;;
79403;SDS011;68858;48.642;9.142;2023-04-02T01:01:36;0.57;;;0.57;;
79403;SDS011;68858;48.642;9.142;2023-04-02T01:04:15;0.70;;;0.70;;
79403;SDS011;68858;48.642;9.142;2023-04-02T01:06:50;2.00;;;0.90;;
79403;SDS011;68858;48.642;9.142;2023-04-02T01:09:26;0.60;;;0.60;;
79403;SDS011;68858;48.642;9.142;2023-04-02T01:12:00;0.70;;;0.70;;
79403;SDS011;68858;48.642;9.142;2023-04-02T01:14:36;0.60;;;0.60;;
79403;SDS011;68858;48.642;9.142;2023-04-02T01:17:19;1.73;;;1.00;;
79403;SDS011;68858;48.642;9.142;2023-04-02T01:24:45;0.60;;;0.60;;
79403;SDS011;68858;48.642;9.142;2023-04-02T01:27:22;0.90;;;0.80;;
79403;SDS011;68858;48.642;9.142;2023-04-02T01:29:52;2.00;;;0.80;;
79403;SDS011;68858;48.642;9.142;2023-04-02T01:32:20;2.40;;;0.60;;
79403;SDS011;68858;48.642;9.142;2023-04-02T01:34:47;0.73;;;0.67;;
79403;SDS011;68858;48.642;9.142;2023-04-02T01:42:18;0.90;;;0.80;;
79403;SDS011;68858;48.642;9.142;2023-04-02T01:44:47;0.77;;;0.77;;
79403;SDS011;68858;48.642;9.142;2023-04-02T01:47:17;0.80;;;0.80;;
79403;SDS011;68858;48.642;9.142;2023-04-02T01:49:44;0.67;;;0.60;;
79403;SDS011;68858;48.642;9.142;2023-04-02T01:52:15;1.67;;;0.97;;
79403;SDS011;68858;48.642;9.142;2023-04-02T01:54:42;1.57;;;0.90;;
79403;SDS011;68858;48.642;9.142;2023-04-02T01:57:08;1.03;;;0.70;;
79403;SDS011;68858;48.642;9.142;2023-04-02T01:59:34;0.77;;;0.77;;
79403;SDS011;68858;48.642;9.142;2023-04-02T02:04:26;1.10;;;0.77;;
79403;SDS011;68858;48.642;9.142;2023-04-02T02:06:53;1.40;;;0.93;;
79403;SDS011;68858;48.642;9.142;2023-04-02T02:09:23;0.60;;;0.60;;
79403;SDS011;68858;48.642;9.142;2023-04-02T02:11:50;0.60;;;0.60;;
79403;SDS011;68858;48.642;9.142;2023-04-02T02:14:18;1.20;;;0.80;;
79403;SDS011;68858;48.642;9.142;2023-04-02T02:16:44;1.80;;;0.90;;
79403;SDS011;68858;48.642;9.142;2023-04-02T02:19:17;1.70;;;0.87;;
79403;SDS011;68858;48.642;9.142;2023-04-02T02:21:46;1.10;;;0.90;;
79403;SDS011;68858;48.642;9.142;2023-04-02T02:24:23;1.00;;;0.90;;
79403;SDS011;68858;48.642;9.142;2023-04-02T02:26:53;1.50;;;0.90;;
79403;SDS011;68858;48.642;9.142;2023-04-02T02:29:23;0.93;;;0.87;;
79403;SDS011;68858;48.642;9.142;2023-04-02T02:31:51;1.13;;;0.90;;
79403;SDS011;68858;48.642;9.142;2023-04-02T02:34:19;2.77;;;0.90;;
79403;SDS011;68858;48.642;9.142;2023-04-02T02:36:47;1.10;;;1.00;;
79403;SDS011;68858;48.642;9.142;2023-04-02T02:39:19;1.00;;;0.90;;
79403;SDS011;68858;48.642;9.142;2023-04-02T02:41:54;1.00;;;0.90;;
79403;SDS011;68858;48.642;9.142;2023-04-02T02:44:26;1.40;;;1.20;;
79403;SDS011;68858;48.642;9.142;2023-04-02T02:46:53;1.47;;;1.30;;
79403;SDS011;68858;48.642;9.142;2023-04-02T02:49:24;1.17;;;1.07;;
79403;SDS011;68858;48.642;9.142;2023-04-02T02:51:56;1.50;;;1.40;;
79403;SDS011;68858;48.642;9.142;2023-04-02T02:54:22;1.87;;;1.10;;
79403;SDS011;68858;48.642;9.142;2023-04-02T02:56:52;2.67;;;1.13;;
79403;SDS011;68858;48.642;9.142;2023-04-02T02:59:19;2.07;;;1.30;;
79403;SDS011;68858;48.642;9.142;2023-04-02T03:01:46;3.00;;;1.10;;
79403;SDS011;68858;48.642;9.142;2023-04-02T03:04:12;3.87;;;1.83;;
79403;SDS011;68858;48.642;9.142;2023-04-02T03:06:40;3.17;;;1.70;;
79403;SDS011;68858;48.642;9.142;2023-04-02T03:09:18;1.90;;;1.70;;
79403;SDS011;68858;48.642;9.142;2023-04-02T03:11:49;1.47;;;1.20;;
79403;SDS011;68858;48.642;9.142;2023-04-02T03:17:33;1.40;;;1.27;;
79403;SDS011;68858;48.642;9.142;2023-04-02T03:20:02;3.40;;;1.10;;
79403;SDS011;68858;48.642;9.142;2023-04-02T03:22:33;1.13;;;1.07;;
79403;SDS011;68858;48.642;9.142;2023-04-02T03:27:29;1.30;;;1.20;;
79403;SDS011;68858;48.642;9.142;2023-04-02T03:30:20;1.53;;;1.00;;
79403;SDS011;68858;48.642;9.142;2023-04-02T03:32:48;2.63;;;1.33;;
79403;SDS011;68858;48.642;9.142;2023-04-02T03:35:18;1.43;;;1.33;;
79403;SDS011;68858;48.642;9.142;2023-04-02T03:37:51;1.80;;;1.20;;
79403;SDS011;68858;48.642;9.142;2023-04-02T03:40:19;1.50;;;1.40;;
79403;SDS011;68858;48.642;9.142;2023-04-02T03:42:48;1.80;;;1.33;;
79403;SDS011;68858;48.642;9.142;2023-04-02T03:45:21;1.30;;;1.20;;
79403;SDS011;68858;48.642;9.142;2023-04-02T03:52:42;1.63;;;1.20;;
79403;SDS011;68858;48.642;9.142;2023-04-02T03:55:10;2.50;;;1.27;;
79403;SDS011;68858;48.642;9.142;2023-04-02T03:57:44;1.30;;;1.20;;
79403;SDS011;68858;48.642;9.142;2023-04-02T04:00:14;1.67;;;1.30;;
79403;SDS011;68858;48.642;9.142;2023-04-02T04:02:48;1.70;;;1.10;;
79403;SDS011;68858;48.642;9.142;2023-04-02T04:05:27;1.50;;;0.93;;
79403;SDS011;68858;48.642;9.142;2023-04-02T04:07:54;1.37;;;0.97;;
79403;SDS011;68858;48.642;9.142;2023-04-02T04:10:23;2.50;;;1.30;;
79403;SDS011;68858;48.642;9.142;2023-04-02T04:12:49;1.47;;;1.00;;
79403;SDS011;68858;48.642;9.142;2023-04-02T04:15:30;2.10;;;1.10;;
79403;SDS011;68858;48.642;9.142;2023-04-02T04:17:59;1.27;;;1.00;;
79403;SDS011;68858;48.642;9.142;2023-04-02T04:23:35;2.63;;;1.07;;
79403;SDS011;68858;48.642;9.142;2023-04-02T04:31:14;2.17;;;1.37;;
79403;SDS011;68858;48.642;9.142;2023-04-02T04:33:46;1.57;;;1.03;;
79403;SDS011;68858;48.642;9.142;2023-04-02T04:36:20;2.57;;;1.33;;
79403;SDS011;68858;48.642;9.142;2023-04-02T04:38:52;2.47;;;1.30;;
79403;SDS011;68858;48.642;9.142;2023-04-02T04:41:20;1.80;;;1.40;;
79403;SDS011;68858;48.642;9.142;2023-04-02T04:43:59;2.17;;;1.10;;
79403;SDS011;68858;48.642;9.142;2023-04-02T04:46:27;2.70;;;1.30;;
79403;SDS011;68858;48.642;9.142;2023-04-02T04:51:25;1.10;;;1.03;;
79403;SDS011;68858;48.642;9.142;2023-04-02T04:53:53;1.57;;;1.10;;
79403;SDS011;68858;48.642;9.142;2023-04-02T04:56:23;1.33;;;1.20;;
79403;SDS011;68858;48.642;9.142;2023-04-02T04:59:32;1.30;;;1.20;;
79403;SDS011;68858;48.642;9.142;2023-04-02T05:01:41;3.83;;;1.43;;
79403;SDS011;68858;48.642;9.142;2023-04-02T05:04:21;2.17;;;1.30;;
79403;SDS011;68858;48.642;9.142;2023-04-02T05:07:00;2.40;;;1.43;;
79403;SDS011;68858;48.642;9.142;2023-04-02T05:09:29;2.10;;;1.87;;
79403;SDS011;68858;48.642;9.142;2023-04-02T05:12:02;2.83;;;1.50;;
79403;SDS011;68858;48.642;9.142;2023-04-02T05:14:41;1.83;;;1.40;;
79403;SDS011;68858;48.642;9.142;2023-04-02T05:17:54;1.97;;;1.40;;
79403;SDS011;68858;48.642;9.142;2023-04-02T05:19:57;1.87;;;1.53;;
79403;SDS011;68858;48.642;9.142;2023-04-02T05:25:08;2.73;;;2.00;;
79403;SDS011;68858;48.642;9.142;2023-04-02T05:32:49;2.80;;;2.30;;
79403;SDS011;68858;48.642;9.142;2023-04-02T05:35:18;2.40;;;2.07;;
79403;SDS011;68858;48.642;9.142;2023-04-02T05:37:45;3.33;;;1.90;;
79403;SDS011;68858;48.642;9.142;2023-04-02T05:40:13;3.03;;;1.70;;
79403;SDS011;68858;48.642;9.142;2023-04-02T05:42:41;2.23;;;1.60;;
79403;SDS011;68858;48.642;9.142;2023-04-02T05:45:28;2.03;;;1.83;;
79403;SDS011;68858;48.642;9.142;2023-04-02T05:47:56;3.10;;;2.00;;
79403;SDS011;68858;48.642;9.142;2023-04-02T05:50:32;2.27;;;1.97;;
79403;SDS011;68858;48.642;9.142;2023-04-02T05:53:08;3.03;;;1.83;;
79403;SDS011;68858;48.642;9.142;2023-04-02T05:55:37;3.40;;;2.10;;
79403;SDS011;68858;48.642;9.142;2023-04-02T05:58:05;4.63;;;2.93;;
79403;SDS011;68858;48.642;9.142;2023-04-02T06:03:19;7.07;;;4.60;;
79403;SDS011;68858;48.642;9.142;2023-04-02T06:05:48;7.57;;;4.33;;
79403;SDS011;68858;48.642;9.142;2023-04-02T06:08:17;4.67;;;3.10;;
79403;SDS011;68858;48.642;9.142;2023-04-02T06:10:49;3.57;;;1.63;;
79403;SDS011;68858;48.642;9.142;2023-04-02T06:13:18;2.57;;;1.67;;
79403;SDS011;68858;48.642;9.142;2023-04-02T06:15:45;1.70;;;1.30;;
79403;SDS011;68858;48.642;9.142;2023-04-02T06:18:15;2.30;;;1.50;;
79403;SDS011;68858;48.642;9.142;2023-04-02T06:20:43;2.50;;;1.20;;
79403;SDS011;68858;48.642;9.142;2023-04-02T06:23:11;2.00;;;1.30;;
79403;SDS011;68858;48.642;9.142;2023-04-02T06:25:47;2.93;;;1.43;;
79403;SDS011;68858;48.642;9.142;2023-04-02T06:28:14;2.60;;;1.60;;
79403;SDS011;68858;48.642;9.142;2023-04-02T06:30:42;2.07;;;1.40;;
79403;SDS011;68858;48.642;9.142;2023-04-02T06:33:09;1.90;;;1.50;;
79403;SDS011;68858;48.642;9.142;2023-04-02T06:35:38;2.93;;;2.63;;
79403;SDS011;68858;48.642;9.142;2023-04-02T06:38:05;5.77;;;4.80;;
79403;SDS011;68858;48.642;9.142;2023-04-02T06:43:12;5.93;;;4.87;;
79403;SDS011;68858;48.642;9.142;2023-04-02T06:45:41;4.93;;;4.00;;
79403;SDS011;68858;48.642;9.142;2023-04-02T06:48:14;4.87;;;2.70;;
79403;SDS011;68858;48.642;9.142;2023-04-02T06:50:47;2.63;;;2.40;;
79403;SDS011;68858;48.642;9.142;2023-04-02T06:53:25;1.87;;;1.77;;
79403;SDS011;68858;48.642;9.142;2023-04-02T06:56:03;2.40;;;1.57;;
79403;SDS011;68858;48.642;9.142;2023-04-02T06:58:29;1.50;;;1.37;;
79403;SDS011;68858;48.642;9.142;2023-04-02T07:00:55;1.60;;;1.10;;
79403;SDS011;68858;48.642;9.142;2023-04-02T07:03:25;1.60;;;1.10;;
79403;SDS011;68858;48.642;9.142;2023-04-02T07:05:52;1.10;;;0.93;;
79403;SDS011;68858;48.642;9.142;2023-04-02T07:08:18;1.03;;;0.90;;
79403;SDS011;68858;48.642;9.142;2023-04-02T07:10:44;2.97;;;1.30;;
79403;SDS011;68858;48.642;9.142;2023-04-02T07:13:14;2.37;;;1.60;;
79403;SDS011;68858;48.642;9.142;2023-04-02T07:15:40;1.83;;;1.50;;
79403;SDS011;68858;48.642;9.142;2023-04-02T07:18:07;2.00;;;1.10;;
79403;SDS011;68858;48.642;9.142;2023-04-02T07:20:34;1.23;;;1.00;;
79403;SDS011;68858;48.642;9.142;2023-04-02T07:23:05;3.47;;;1.13;;
79403;SDS011;68858;48.642;9.142;2023-04-02T07:25:32;1.53;;;0.80;;
79403;SDS011;68858;48.642;9.142;2023-04-02T07:27:58;4.43;;;1.10;;
79403;SDS011;68858;48.642;9.142;2023-04-02T07:30:25;1.50;;;1.10;;
79403;SDS011;68858;48.642;9.142;2023-04-02T07:32:51;2.87;;;1.00;;
79403;SDS011;68858;48.642;9.142;2023-04-02T07:35:17;1.70;;;1.00;;
79403;SDS011;68858;48.642;9.142;2023-04-02T07:37:43;3.00;;;1.10;;
79403;SDS011;68858;48.642;9.142;2023-04-02T07:40:16;1.87;;;1.23;;
79403;SDS011;68858;48.642;9.142;2023-04-02T07:42:43;1.37;;;1.00;;
79403;SDS011;68858;48.642;9.142;2023-04-02T07:45:09;0.87;;;0.87;;
79403;SDS011;68858;48.642;9.142;2023-04-02T07:47:35;1.13;;;1.00;;
79403;SDS011;68858;48.642;9.142;2023-04-02T07:50:01;1.60;;;1.13;;
79403;SDS011;68858;48.642;9.142;2023-04-02T07:52:27;1.20;;;1.10;;
79403;SDS011;68858;48.642;9.142;2023-04-02T07:54:53;2.50;;;1.30;;
79403;SDS011;68858;48.642;9.142;2023-04-02T07:57:19;3.00;;;1.23;;
79403;SDS011;68858;48.642;9.142;2023-04-02T07:59:45;1.60;;;1.00;;
79403;SDS011;68858;48.642;9.142;2023-04-02T08:02:18;2.30;;;1.10;;
79403;SDS011;68858;48.642;9.142;2023-04-02T08:04:44;1.87;;;1.33;;
79403;SDS011;68858;48.642;9.142;2023-04-02T08:07:10;0.83;;;0.83;;
79403;SDS011;68858;48.642;9.142;2023-04-02T08:09:36;1.30;;;1.10;;
79403;SDS011;68858;48.642;9.142;2023-04-02T08:12:02;0.97;;;0.83;;
79403;SDS011;68858;48.642;9.142;2023-04-02T08:14:28;1.77;;;0.90;;
79403;SDS011;68858;48.642;9.142;2023-04-02T08:16:54;1.23;;;0.83;;
79403;SDS011;68858;48.642;9.142;2023-04-02T08:19:21;1.10;;;0.80;;
79403;SDS011;68858;48.642;9.142;2023-04-02T08:21:47;1.23;;;1.10;;
79403;SDS011;68858;48.642;9.142;2023-04-02T08:24:15;1.53;;;0.80;;
79403;SDS011;68858;48.642;9.142;2023-04-02T08:26:46;2.23;;;1.00;;
79403;SDS011;68858;48.642;9.142;2023-04-02T08:29:12;2.20;;;1.27;;
79403;SDS011;68858;48.642;9.142;2023-04-02T08:31:37;1.97;;;1.00;;
79403;SDS011;68858;48.642;9.142;2023-04-02T08:34:03;1.20;;;0.93;;
79403;SDS011;68858;48.642;9.142;2023-04-02T08:36:32;1.47;;;0.90;;
79403;SDS011;68858;48.642;9.142;2023-04-02T08:38:58;1.73;;;0.90;;
79403;SDS011;68858;48.642;9.142;2023-04-02T08:41:25;1.33;;;1.00;;
79403;SDS011;68858;48.642;9.142;2023-04-02T08:46:40;0.80;;;0.80;;
79403;SDS011;68858;48.642;9.142;2023-04-02T08:49:25;1.63;;;0.80;;
79403;SDS011;68858;48.642;9.142;2023-04-02T08:51:53;1.83;;;0.90;;
79403;SDS011;68858;48.642;9.142;2023-04-02T08:54:26;1.47;;;1.03;;
79403;SDS011;68858;48.642;9.142;2023-04-02T08:59:34;1.00;;;0.90;;
79403;SDS011;68858;48.642;9.142;2023-04-02T09:02:04;1.00;;;0.90;;
79403;SDS011;68858;48.642;9.142;2023-04-02T09:04:31;8.13;;;1.03;;
79403;SDS011;68858;48.642;9.142;2023-04-02T09:06:58;1.20;;;0.70;;
79403;SDS011;68858;48.642;9.142;2023-04-02T09:09:24;0.93;;;0.90;;
79403;SDS011;68858;48.642;9.142;2023-04-02T09:12:00;1.40;;;1.00;;
79403;SDS011;68858;48.642;9.142;2023-04-02T09:14:39;4.60;;;2.50;;
79403;SDS011;68858;48.642;9.142;2023-04-02T09:17:17;2.80;;;1.90;;
79403;SDS011;68858;48.642;9.142;2023-04-02T09:19:44;1.97;;;1.77;;
79403;SDS011;68858;48.642;9.142;2023-04-02T09:24:50;2.53;;;1.33;;
79403;SDS011;68858;48.642;9.142;2023-04-02T09:27:21;2.20;;;1.63;;
79403;SDS011;68858;48.642;9.142;2023-04-02T09:29:48;1.67;;;1.30;;
79403;SDS011;68858;48.642;9.142;2023-04-02T09:32:24;1.40;;;1.00;;
79403;SDS011;68858;48.642;9.142;2023-04-02T09:35:03;1.30;;;1.00;;
79403;SDS011;68858;48.642;9.142;2023-04-02T09:37:30;1.10;;;0.83;;
79403;SDS011;68858;48.642;9.142;2023-04-02T09:42:42;1.47;;;0.67;;
79403;SDS011;68858;48.642;9.142;2023-04-02T09:45:13;1.40;;;0.90;;
79403;SDS011;68858;48.642;9.142;2023-04-02T09:47:39;0.77;;;0.70;;
79403;SDS011;68858;48.642;9.142;2023-04-02T09:50:21;0.77;;;0.70;;
79403;SDS011;68858;48.642;9.142;2023-04-02T09:52:48;0.80;;;0.63;;
79403;SDS011;68858;48.642;9.142;2023-04-02T09:55:22;0.90;;;0.73;;
79403;SDS011;68858;48.642;9.142;2023-04-02T09:57:50;0.70;;;0.70;;
79403;SDS011;68858;48.642;9.142;2023-04-02T10:00:31;1.27;;;0.90;;
79403;SDS011;68858;48.642;9.142;2023-04-02T10:03:01;1.57;;;1.00;;
79403;SDS011;68858;48.642;9.142;2023-04-02T10:05:28;1.23;;;0.80;;
79403;SDS011;68858;48.642;9.142;2023-04-02T10:07:56;1.33;;;0.90;;
79403;SDS011;68858;48.642;9.142;2023-04-02T10:10:31;0.90;;;0.70;;
79403;SDS011;68858;48.642;9.142;2023-04-02T10:13:05;0.70;;;0.70;;
79403;SDS011;68858;48.642;9.142;2023-04-02T10:15:42;1.23;;;0.80;;
79403;SDS011;68858;48.642;9.142;2023-04-02T10:18:13;1.00;;;0.90;;
79403;SDS011;68858;48.642;9.142;2023-04-02T10:20:42;0.70;;;0.70;;
79403;SDS011;68858;48.642;9.142;2023-04-02T10:23:14;1.17;;;0.70;;
79403;SDS011;68858;48.642;9.142;2023-04-02T10:25:41;1.10;;;0.40;;
79403;SDS011;68858;48.642;9.142;2023-04-02T10:28:26;1.43;;;0.70;;
79403;SDS011;68858;48.642;9.142;2023-04-02T10:31:37;0.70;;;0.70;;
79403;SDS011;68858;48.642;9.142;2023-04-02T10:33:45;0.77;;;0.57;;
79403;SDS011;68858;48.642;9.142;2023-04-02T10:36:27;1.23;;;0.60;;
79403;SDS011;68858;48.642;9.142;2023-04-02T10:39:00;1.10;;;0.70;;
79403;SDS011;68858;48.642;9.142;2023-04-02T10:49:04;1.63;;;1.20;;
79403;SDS011;68858;48.642;9.142;2023-04-02T10:51:55;2.10;;;1.23;;
79403;SDS011;68858;48.642;9.142;2023-04-02T10:54:32;2.13;;;1.30;;
79403;SDS011;68858;48.642;9.142;2023-04-02T10:57:05;1.40;;;1.23;;
79403;SDS011;68858;48.642;9.142;2023-04-02T10:59:33;0.97;;;0.80;;
79403;SDS011;68858;48.642;9.142;2023-04-02T11:02:00;0.93;;;0.93;;
79403;SDS011;68858;48.642;9.142;2023-04-02T11:04:30;1.87;;;1.10;;
79403;SDS011;68858;48.642;9.142;2023-04-02T11:06:58;1.43;;;1.30;;
79403;SDS011;68858;48.642;9.142;2023-04-02T11:09:26;1.47;;;1.20;;
79403;SDS011;68858;48.642;9.142;2023-04-02T11:11:55;2.40;;;1.30;;
79403;SDS011;68858;48.642;9.142;2023-04-02T11:14:29;1.33;;;1.23;;
79403;SDS011;68858;48.642;9.142;2023-04-02T11:16:56;1.80;;;1.10;;
79403;SDS011;68858;48.642;9.142;2023-04-02T11:22:02;2.63;;;1.20;;
79403;SDS011;68858;48.642;9.142;2023-04-02T11:29:37;3.33;;;1.67;;
79403;SDS011;68858;48.642;9.142;2023-04-02T11:37:08;1.87;;;1.17;;
79403;SDS011;68858;48.642;9.142;2023-04-02T11:39:44;2.30;;;1.10;;
79403;SDS011;68858;48.642;9.142;2023-04-02T11:42:21;1.20;;;1.00;;
79403;SDS011;68858;48.642;9.142;2023-04-02T11:44:49;0.80;;;0.80;;
79403;SDS011;68858;48.642;9.142;2023-04-02T11:52:20;1.10;;;1.00;;
79403;SDS011;68858;48.642;9.142;2023-04-02T11:54:53;1.10;;;0.63;;
79403;SDS011;68858;48.642;9.142;2023-04-02T12:00:22;0.93;;;0.83;;
79403;SDS011;68858;48.642;9.142;2023-04-02T12:05:28;0.93;;;0.90;;
79403;SDS011;68858;48.642;9.142;2023-04-02T12:08:12;1.20;;;0.90;;
79403;SDS011;68858;48.642;9.142;2023-04-02T12:16:09;0.73;;;0.60;;
79403;SDS011;68858;48.642;9.142;2023-04-02T12:18:43;0.90;;;0.77;;
79403;SDS011;68858;48.642;9.142;2023-04-02T12:21:17;0.80;;;0.80;;
79403;SDS011;68858;48.642;9.142;2023-04-02T12:23:44;0.57;;;0.57;;
79403;SDS011;68858;48.642;9.142;2023-04-02T12:26:26;1.90;;;0.80;;
79403;SDS011;68858;48.642;9.142;2023-04-02T12:28:54;0.77;;;0.70;;
79403;SDS011;68858;48.642;9.142;2023-04-02T12:31:20;0.60;;;0.60;;
79403;SDS011;68858;48.642;9.142;2023-04-02T12:33:50;1.23;;;0.90;;
79403;SDS011;68858;48.642;9.142;2023-04-02T12:36:18;0.90;;;0.70;;
79403;SDS011;68858;48.642;9.142;2023-04-02T12:41:22;2.63;;;2.40;;
79403;SDS011;68858;48.642;9.142;2023-04-02T12:43:58;1.50;;;1.40;;
79403;SDS011;68858;48.642;9.142;2023-04-02T12:46:24;1.20;;;1.10;;
79403;SDS011;68858;48.642;9.142;2023-04-02T12:48:51;1.47;;;1.37;;
79403;SDS011;68858;48.642;9.142;2023-04-02T12:51:18;1.73;;;1.63;;
79403;SDS011;68858;48.642;9.142;2023-04-02T12:53:47;0.97;;;0.80;;
79403;SDS011;68858;48.642;9.142;2023-04-02T12:56:17;0.87;;;0.77;;
79403;SDS011;68858;48.642;9.142;2023-04-02T12:58:50;1.50;;;0.90;;
79403;SDS011;68858;48.642;9.142;2023-04-02T13:01:18;1.30;;;0.70;;
79403;SDS011;68858;48.642;9.142;2023-04-02T13:06:30;0.70;;;0.70;;
79403;SDS011;68858;48.642;9.142;2023-04-02T13:09:00;0.50;;;0.50;;
79403;SDS011;68858;48.642;9.142;2023-04-02T13:14:00;1.13;;;0.70;;
79403;SDS011;68858;48.642;9.142;2023-04-02T13:16:34;0.90;;;0.80;;
79403;SDS011;68858;48.642;9.142;2023-04-02T13:19:11;0.90;;;0.50;;
79403;SDS011;68858;48.642;9.142;2023-04-02T13:21:44;1.13;;;1.03;;
79403;SDS011;68858;48.642;9.142;2023-04-02T13:24:23;1.13;;;0.93;;
79403;SDS011;68858;48.642;9.142;2023-04-02T13:26:49;0.70;;;0.70;;
79403;SDS011;68858;48.642;9.142;2023-04-02T13:31:41;1.63;;;0.60;;
79403;SDS011;68858;48.642;9.142;2023-04-02T13:34:07;0.73;;;0.73;;
79403;SDS011;68858;48.642;9.142;2023-04-02T13:36:33;0.80;;;0.70;;
79403;SDS011;68858;48.642;9.142;2023-04-02T13:39:01;1.30;;;0.70;;
79403;SDS011;68858;48.642;9.142;2023-04-02T13:41:31;0.70;;;0.70;;
79403;SDS011;68858;48.642;9.142;2023-04-02T13:43:59;0.70;;;0.70;;
79403;SDS011;68858;48.642;9.142;2023-04-02T13:46:27;1.00;;;0.90;;
79403;SDS011;68858;48.642;9.142;2023-04-02T13:48:53;1.17;;;0.77;;
79403;SDS011;68858;48.642;9.142;2023-04-02T13:51:21;1.03;;;0.80;;
79403;SDS011;68858;48.642;9.142;2023-04-02T13:53:49;1.17;;;0.80;;
79403;SDS011;68858;48.642;9.142;2023-04-02T13:56:16;0.90;;;0.70;;
79403;SDS011;68858;48.642;9.142;2023-04-02T13:58:44;0.80;;;0.80;;
79403;SDS011;68858;48.642;9.142;2023-04-02T14:01:10;1.27;;;1.00;;
79403;SDS011;68858;48.642;9.142;2023-04-02T14:03:36;2.17;;;1.03;;
79403;SDS011;68858;48.642;9.142;2023-04-02T14:08:41;0.70;;;0.70;;
79403;SDS011;68858;48.642;9.142;2023-04-02T14:11:16;0.87;;;0.87;;
79403;SDS011;68858;48.642;9.142;2023-04-02T14:19:12;0.90;;;0.80;;
79403;SDS011;68858;48.642;9.142;2023-04-02T14:21:45;1.00;;;0.90;;
79403;SDS011;68858;48.642;9.142;2023-04-02T14:26:59;1.77;;;1.67;;
79403;SDS011;68858;48.642;9.142;2023-04-02T14:29:31;1.80;;;1.70;;
79403;SDS011;68858;48.642;9.142;2023-04-02T14:32:19;1.90;;;1.80;;
79403;SDS011;68858;48.642;9.142;2023-04-02T14:37:22;2.47;;;2.27;;
79403;SDS011;68858;48.642;9.142;2023-04-02T14:42:19;2.57;;;1.83;;
79403;SDS011;68858;48.642;9.142;2023-04-02T14:44:50;1.50;;;1.40;;
79403;SDS011;68858;48.642;9.142;2023-04-02T14:47:30;1.70;;;1.50;;
79403;SDS011;68858;48.642;9.142;2023-04-02T14:50:00;1.83;;;1.73;;
79403;SDS011;68858;48.642;9.142;2023-04-02T14:52:27;2.40;;;2.20;;
79403;SDS011;68858;48.642;9.142;2023-04-02T14:54:57;2.40;;;2.20;;
79403;SDS011;68858;48.642;9.142;2023-04-02T14:57:28;2.30;;;2.10;;
79403;SDS011;68858;48.642;9.142;2023-04-02T15:00:03;2.70;;;2.47;;
79403;SDS011;68858;48.642;9.142;2023-04-02T15:02:35;2.70;;;2.50;;
79403;SDS011;68858;48.642;9.142;2023-04-02T15:05:10;2.20;;;2.10;;
79403;SDS011;68858;48.642;9.142;2023-04-02T15:07:40;2.27;;;2.17;;
79403;SDS011;68858;48.642;9.142;2023-04-02T15:12:41;2.67;;;2.47;;
79403;SDS011;68858;48.642;9.142;2023-04-02T15:17:50;3.43;;;3.00;;
79403;SDS011;68858;48.642;9.142;2023-04-02T15:20:17;3.33;;;2.73;;
79403;SDS011;68858;48.642;9.142;2023-04-02T15:25:14;2.43;;;2.07;;
79403;SDS011;68858;48.642;9.142;2023-04-02T15:27:50;3.60;;;2.60;;
79403;SDS011;68858;48.642;9.142;2023-04-02T15:30:24;2.37;;;2.17;;
79403;SDS011;68858;48.642;9.142;2023-04-02T15:32:50;3.00;;;2.70;;
79403;SDS011;68858;48.642;9.142;2023-04-02T15:40:29;3.23;;;2.93;;
79403;SDS011;68858;48.642;9.142;2023-04-02T15:43:03;2.63;;;2.43;;
79403;SDS011;68858;48.642;9.142;2023-04-02T15:45:32;2.73;;;2.53;;
79403;SDS011;68858;48.642;9.142;2023-04-02T15:55:38;2.50;;;2.30;;
79403;SDS011;68858;48.642;9.142;2023-04-02T15:58:11;2.70;;;2.00;;
79403;SDS011;68858;48.642;9.142;2023-04-02T16:00:45;2.73;;;2.37;;
79403;SDS011;68858;48.642;9.142;2023-04-02T16:03:24;2.20;;;2.03;;
79403;SDS011;68858;48.642;9.142;2023-04-02T16:08:28;2.33;;;2.13;;
79403;SDS011;68858;48.642;9.142;2023-04-02T16:11:01;3.33;;;2.43;;
79403;SDS011;68858;48.642;9.142;2023-04-02T16:13:29;3.87;;;3.57;;
79403;SDS011;68858;48.642;9.142;2023-04-02T16:18:48;2.23;;;2.07;;
79403;SDS011;68858;48.642;9.142;2023-04-02T16:21:21;6.40;;;5.80;;
79403;SDS011;68858;48.642;9.142;2023-04-02T16:23:48;2.60;;;2.37;;
79403;SDS011;68858;48.642;9.142;2023-04-02T16:26:20;2.93;;;2.67;;
79403;SDS011;68858;48.642;9.142;2023-04-02T16:39:24;1.97;;;1.87;;
79403;SDS011;68858;48.642;9.142;2023-04-02T16:44:31;2.70;;;2.50;;
79403;SDS011;68858;48.642;9.142;2023-04-02T16:49:43;2.77;;;2.57;;
79403;SDS011;68858;48.642;9.142;2023-04-02T16:58:02;2.80;;;2.60;;
79403;SDS011;68858;48.642;9.142;2023-04-02T17:00:43;2.80;;;2.60;;
79403;SDS011;68858;48.642;9.142;2023-04-02T17:03:15;4.23;;;2.90;;
79403;SDS011;68858;48.642;9.142;2023-04-02T17:09:10;5.10;;;3.33;;
79403;SDS011;68858;48.642;9.142;2023-04-02T17:11:22;3.50;;;3.20;;
79403;SDS011;68858;48.642;9.142;2023-04-02T17:16:42;7.87;;;5.83;;
79403;SDS011;68858;48.642;9.142;2023-04-02T17:19:09;4.33;;;3.93;;
79403;SDS011;68858;48.642;9.142;2023-04-02T17:21:35;4.33;;;3.93;;
79403;SDS011;68858;48.642;9.142;2023-04-02T17:24:14;3.40;;;3.20;;
79403;SDS011;68858;48.642;9.142;2023-04-02T17:26:46;5.33;;;3.93;;
79403;SDS011;68858;48.642;9.142;2023-04-02T17:29:18;3.60;;;3.30;;
79403;SDS011;68858;48.642;9.142;2023-04-02T17:31:44;3.10;;;2.90;;
79403;SDS011;68858;48.642;9.142;2023-04-02T17:34:11;3.00;;;2.80;;
79403;SDS011;68858;48.642;9.142;2023-04-02T17:39:24;4.23;;;3.93;;
79403;SDS011;68858;48.642;9.142;2023-04-02T17:42:03;4.47;;;4.07;;
79403;SDS011;68858;48.642;9.142;2023-04-02T17:44:43;5.00;;;4.50;;
79403;SDS011;68858;48.642;9.142;2023-04-02T17:47:16;6.27;;;5.00;;
79403;SDS011;68858;48.642;9.142;2023-04-02T17:57:40;3.43;;;3.13;;
79403;SDS011;68858;48.642;9.142;2023-04-02T18:00:09;3.10;;;2.90;;
79403;SDS011;68858;48.642;9.142;2023-04-02T18:05:19;3.10;;;2.90;;
79403;SDS011;68858;48.642;9.142;2023-04-02T18:08:10;2.47;;;2.33;;
79403;SDS011;68858;48.642;9.142;2023-04-02T18:13:28;2.57;;;2.37;;
79403;SDS011;68858;48.642;9.142;2023-04-02T18:21:30;3.43;;;3.13;;
79403;SDS011;68858;48.642;9.142;2023-04-02T18:28:58;3.60;;;3.30;;
79403;SDS011;68858;48.642;9.142;2023-04-02T18:31:31;8.40;;;6.50;;